PWSweather.com
Personal Weather Stations
Station Observations
VPOKROGLO
Kal Nad Kanalom, PrimorskaSI

Kal Nad KanalomPrimorskaSI

Lat: 46.072, Lon: 13.734

Elevation: 2526

Station Type: WS-2355

http://www.okroglovreme.com

Latest ConditionsUpdated 8:15:00 PM GMT+01:01 Tuesday, Jan 24, 2017
Currently Today's Max Today's Min Today's Average
Temperature 21.6°F-5.8°C 37.2°F2.9°C 20.3°F-6.5°C 31.7°F-0.2°C
Dew Point 14.2°F-9.9°C 21.9°F-5.6°C 13.9°F-10.1°C 19.7°F-6.8°C
Winds 8.1 mph SE13.0 kmh SE 10.3 mph NE16.6 kmh NE - 5.6 mph 9.0 kmh
Wind Gusts 20.8 mph33.5 kmh 26.6 mph42.8 kmh - -
Humidity 73% 76% 52% 61%
Pressure 30.29 in1025.7 mb 30.31 in1026.4 mb 30.10 in1019.3 mb -
Precipitation - 0.06 in1.5 mm - -
Hour Temp Dew Point Humidity Winds Wind Gusts Pressure Precip Precip Rate Daily Precip Total
08:15 PM 21.6°F-5.8°C 14.2°F-9.9°C 73% 8.1 mph SE13.0 kmh SE 20.8 mph33.5 kmh 30.29 in1025.7 mb 0.00 in0.0 mm 0.00 in0.0 mm 0.06 in1.5 mm
08:00 PM 22.3°F-5.4°C 14.6°F-9.7°C 72% 10.3 mph NE16.6 kmh NE 26.6 mph42.8 kmh 30.31 in1026.4 mb 0.00 in0.0 mm 0.00 in0.0 mm 0.06 in1.5 mm
07:45 PM 21.4°F-5.9°C 14.1°F-9.9°C 73% 8.9 mph SE14.3 kmh SE 20.6 mph33.2 kmh 30.28 in1025.4 mb 0.00 in0.0 mm 0.00 in0.0 mm 0.00 in0.0 mm
07:30 PM 21.6°F-5.8°C 14.2°F-9.9°C 73% 9.8 mph E15.8 kmh E 25.9 mph41.7 kmh 30.28 in1025.4 mb 0.00 in0.0 mm 0.00 in0.0 mm 0.00 in0.0 mm
07:15 PM 21.4°F-5.9°C 14.7°F-9.6°C 75% 8.3 mph E13.4 kmh E 19.7 mph31.7 kmh 30.29 in1025.7 mb 0.00 in0.0 mm 0.00 in0.0 mm 0.00 in0.0 mm
07:00 PM 20.8°F-6.2°C 14.5°F-9.7°C 76% 8.9 mph SE14.3 kmh SE 21.7 mph34.9 kmh 30.29 in1025.7 mb 0.00 in0.0 mm 0.00 in0.0 mm 0.00 in0.0 mm
06:45 PM 20.5°F-6.4°C 14.1°F-9.9°C 76% 8.3 mph ESE13.4 kmh ESE 20.1 mph32.3 kmh 30.29 in1025.7 mb 0.00 in0.0 mm 0.00 in0.0 mm 0.00 in0.0 mm
06:30 PM 20.3°F-6.5°C 13.9°F-10.1°C 76% 7.3 mph E11.7 kmh E 18.6 mph29.9 kmh 30.27 in1025.1 mb 0.00 in0.0 mm 0.00 in0.0 mm 0.00 in0.0 mm
06:00 PM 21.7°F-5.7°C 14.7°F-9.6°C 74% 5.9 mph N9.5 kmh N 15.2 mph24.5 kmh 30.24 in1024.0 mb 0.00 in0.0 mm 0.00 in0.0 mm 0.00 in0.0 mm
05:45 PM 22.6°F-5.2°C 15.3°F-9.3°C 73% 6.5 mph NW10.5 kmh NW 18.1 mph29.1 kmh 30.20 in1022.7 mb 0.00 in0.0 mm 0.00 in0.0 mm 0.00 in0.0 mm
05:30 PM 22.8°F-5.1°C 15.1°F-9.4°C 72% 5.7 mph SSE9.2 kmh SSE 16.3 mph26.2 kmh 30.15 in1021.0 mb 0.00 in0.0 mm 0.00 in0.0 mm 0.00 in0.0 mm
05:15 PM 23.0°F-5.0°C 15.0°F-9.4°C 71% 7.2 mph SSE11.6 kmh SSE 17.2 mph27.7 kmh 30.15 in1021.0 mb 0.00 in0.0 mm 0.00 in0.0 mm 0.00 in0.0 mm
05:00 PM 24.6°F-4.1°C 15.9°F-8.9°C 69% 8.2 mph SE13.2 kmh SE 16.8 mph27.0 kmh 30.13 in1020.3 mb 0.00 in0.0 mm 0.00 in0.0 mm 0.00 in0.0 mm
04:45 PM 25.7°F-3.5°C 16.3°F-8.7°C 67% 6.2 mph SE10.0 kmh SE 16.3 mph26.2 kmh 30.13 in1020.3 mb 0.00 in0.0 mm 0.00 in0.0 mm 0.00 in0.0 mm
04:30 PM 25.9°F-3.4°C 16.4°F-8.7°C 67% 9.1 mph SSE14.6 kmh SSE 20.4 mph32.8 kmh 30.12 in1020.0 mb 0.00 in0.0 mm 0.00 in0.0 mm 0.00 in0.0 mm
04:15 PM 29.1°F-1.6°C 17.7°F-7.9°C 62% 7.0 mph SE11.3 kmh SE 17.4 mph28.0 kmh 30.13 in1020.3 mb 0.00 in0.0 mm 0.00 in0.0 mm 0.00 in0.0 mm
04:00 PM 30.7°F-0.7°C 18.1°F-7.7°C 59% 7.4 mph SE11.9 kmh SE 15.9 mph25.6 kmh 30.11 in1019.6 mb 0.00 in0.0 mm 0.00 in0.0 mm 0.00 in0.0 mm
03:45 PM 32.7°F0.4°C 18.7°F-7.4°C 56% 6.3 mph SE10.1 kmh SE 15.7 mph25.3 kmh 30.11 in1019.6 mb 0.00 in0.0 mm 0.00 in0.0 mm 0.00 in0.0 mm
03:30 PM 34.3°F1.3°C 19.4°F-7.0°C 54% 6.3 mph E10.1 kmh E 16.1 mph25.9 kmh 30.11 in1019.6 mb 0.00 in0.0 mm 0.00 in0.0 mm 0.00 in0.0 mm
03:15 PM 34.3°F1.3°C 19.8°F-6.8°C 55% 5.5 mph E8.9 kmh E 15.2 mph24.5 kmh 30.11 in1019.6 mb 0.00 in0.0 mm 0.00 in0.0 mm 0.00 in0.0 mm
03:00 PM 35.8°F2.1°C 20.3°F-6.5°C 53% 5.4 mph SE8.7 kmh SE 12.8 mph20.6 kmh 30.10 in1019.3 mb 0.00 in0.0 mm 0.00 in0.0 mm 0.00 in0.0 mm
02:45 PM 36.1°F2.3°C 20.2°F-6.6°C 52% 7.4 mph SE11.9 kmh SE 18.1 mph29.1 kmh 30.10 in1019.3 mb 0.00 in0.0 mm 0.00 in0.0 mm 0.00 in0.0 mm
02:30 PM 37.2°F2.9°C 21.2°F-6.0°C 52% 6.3 mph SE10.1 kmh SE 16.1 mph25.9 kmh 30.10 in1019.3 mb 0.00 in0.0 mm 0.00 in0.0 mm 0.00 in0.0 mm
02:15 PM 36.3°F2.4°C 20.8°F-6.2°C 53% 7.0 mph SSE11.3 kmh SSE 16.8 mph27.0 kmh 30.10 in1019.3 mb 0.00 in0.0 mm 0.00 in0.0 mm 0.00 in0.0 mm
02:00 PM 36.7°F2.6°C 21.1°F-6.1°C 53% 6.6 mph SE10.6 kmh SE 13.9 mph22.4 kmh 30.10 in1019.3 mb 0.00 in0.0 mm 0.00 in0.0 mm 0.00 in0.0 mm
01:45 PM 37.0°F2.8°C 21.5°F-5.8°C 53% 6.4 mph SE10.3 kmh SE 17.0 mph27.4 kmh 30.10 in1019.3 mb 0.00 in0.0 mm 0.00 in0.0 mm 0.00 in0.0 mm
01:30 PM 36.9°F2.7°C 21.3°F-5.9°C 53% 7.6 mph SE12.2 kmh SE 17.0 mph27.4 kmh 30.10 in1019.3 mb 0.00 in0.0 mm 0.00 in0.0 mm 0.00 in0.0 mm
01:15 PM 37.2°F2.9°C 21.6°F-5.8°C 53% 7.5 mph SE12.1 kmh SE 16.8 mph27.0 kmh 30.11 in1019.6 mb 0.00 in0.0 mm 0.00 in0.0 mm 0.00 in0.0 mm
01:00 PM 36.9°F2.7°C 21.3°F-5.9°C 53% 6.8 mph SE10.9 kmh SE 15.2 mph24.5 kmh 30.11 in1019.6 mb 0.00 in0.0 mm 0.00 in0.0 mm 0.00 in0.0 mm
12:45 PM 37.2°F2.9°C 21.6°F-5.8°C 53% 6.3 mph SE10.1 kmh SE 17.2 mph27.7 kmh 30.12 in1020.0 mb 0.00 in0.0 mm 0.00 in0.0 mm 0.00 in0.0 mm
12:30 PM 36.7°F2.6°C 21.1°F-6.1°C 53% 7.6 mph SE12.2 kmh SE 17.9 mph28.8 kmh 30.12 in1020.0 mb 0.00 in0.0 mm 0.00 in0.0 mm 0.00 in0.0 mm
12:15 PM 36.1°F2.3°C 21.1°F-6.1°C 54% 6.9 mph ESE11.1 kmh ESE 18.3 mph29.5 kmh 30.12 in1020.0 mb 0.00 in0.0 mm 0.00 in0.0 mm 0.00 in0.0 mm
12:00 PM 36.3°F2.4°C 21.2°F-6.0°C 54% 7.4 mph ENE11.9 kmh ENE 17.7 mph28.5 kmh 30.13 in1020.3 mb 0.00 in0.0 mm 0.00 in0.0 mm 0.00 in0.0 mm
11:45 AM 35.4°F1.9°C 21.3°F-5.9°C 56% 7.3 mph E11.7 kmh E 22.1 mph35.6 kmh 30.13 in1020.3 mb 0.00 in0.0 mm 0.00 in0.0 mm 0.00 in0.0 mm
11:30 AM 35.1°F1.7°C 20.9°F-6.2°C 56% 7.3 mph ESE11.7 kmh ESE 19.7 mph31.7 kmh 30.14 in1020.7 mb 0.00 in0.0 mm 0.00 in0.0 mm 0.00 in0.0 mm
11:15 AM 34.9°F1.6°C 21.2°F-6.0°C 57% 7.6 mph SE12.2 kmh SE 17.7 mph28.5 kmh 30.13 in1020.3 mb 0.00 in0.0 mm 0.00 in0.0 mm 0.00 in0.0 mm
11:00 AM 34.9°F1.6°C 21.2°F-6.0°C 57% 6.9 mph NE11.1 kmh NE 17.2 mph27.7 kmh 30.13 in1020.3 mb 0.00 in0.0 mm 0.00 in0.0 mm 0.00 in0.0 mm
10:45 AM 34.9°F1.6°C 21.2°F-6.0°C 57% 7.3 mph E11.7 kmh E 19.2 mph30.9 kmh 30.14 in1020.7 mb 0.00 in0.0 mm 0.00 in0.0 mm 0.00 in0.0 mm
10:30 AM 34.9°F1.6°C 21.2°F-6.0°C 57% 7.7 mph E12.4 kmh E 15.7 mph25.3 kmh 30.13 in1020.3 mb 0.00 in0.0 mm 0.00 in0.0 mm 0.00 in0.0 mm
10:15 AM 35.4°F1.9°C 21.7°F-5.7°C 57% 7.2 mph NE11.6 kmh NE 18.1 mph29.1 kmh 30.13 in1020.3 mb 0.00 in0.0 mm 0.00 in0.0 mm 0.00 in0.0 mm
10:00 AM 35.8°F2.1°C 21.6°F-5.8°C 56% 6.2 mph E10.0 kmh E 15.2 mph24.5 kmh 30.12 in1020.0 mb 0.00 in0.0 mm 0.00 in0.0 mm 0.00 in0.0 mm
09:45 AM 35.2°F1.8°C 21.5°F-5.8°C 57% 6.8 mph E10.9 kmh E 18.3 mph29.5 kmh 30.12 in1020.0 mb 0.00 in0.0 mm 0.00 in0.0 mm 0.00 in0.0 mm
09:30 AM 35.1°F1.7°C 21.3°F-5.9°C 57% 6.2 mph SE10.0 kmh SE 15.7 mph25.3 kmh 30.12 in1020.0 mb 0.00 in0.0 mm 0.00 in0.0 mm 0.00 in0.0 mm
09:15 AM 34.3°F1.3°C 21.5°F-5.8°C 59% 5.4 mph E8.7 kmh E 18.8 mph30.3 kmh 30.12 in1020.0 mb 0.00 in0.0 mm 0.00 in0.0 mm 0.00 in0.0 mm
09:00 AM 32.5°F0.3°C 20.6°F-6.3°C 61% 5.6 mph NNE9.0 kmh NNE 12.3 mph19.8 kmh 30.12 in1020.0 mb 0.00 in0.0 mm 0.00 in0.0 mm 0.00 in0.0 mm
08:45 AM 32.4°F0.2°C 20.4°F-6.4°C 61% 5.5 mph SE8.9 kmh SE 13.4 mph21.6 kmh 30.12 in1020.0 mb 0.00 in0.0 mm 0.00 in0.0 mm 0.00 in0.0 mm
08:30 AM 32.5°F0.3°C 20.6°F-6.3°C 61% 5.9 mph NE9.5 kmh NE 15.0 mph24.1 kmh 30.11 in1019.6 mb 0.00 in0.0 mm 0.00 in0.0 mm 0.00 in0.0 mm
08:15 AM 32.7°F0.4°C 20.7°F-6.3°C 61% 5.5 mph SE8.9 kmh SE 16.8 mph27.0 kmh 30.11 in1019.6 mb 0.00 in0.0 mm 0.00 in0.0 mm 0.00 in0.0 mm
08:00 AM 33.3°F0.7°C 20.9°F-6.2°C 60% 5.2 mph S8.4 kmh S 16.6 mph26.7 kmh 30.12 in1020.0 mb 0.00 in0.0 mm 0.00 in0.0 mm 0.00 in0.0 mm
07:45 AM 33.3°F0.7°C 20.9°F-6.2°C 60% 5.0 mph SSW8.0 kmh SSW 12.8 mph20.6 kmh 30.11 in1019.6 mb 0.00 in0.0 mm 0.00 in0.0 mm 0.00 in0.0 mm
07:30 AM 32.9°F0.5°C 20.9°F-6.2°C 61% 4.5 mph WSW7.2 kmh WSW 13.9 mph22.4 kmh 30.11 in1019.6 mb 0.00 in0.0 mm 0.00 in0.0 mm 0.00 in0.0 mm
07:15 AM 32.7°F0.4°C 20.7°F-6.3°C 61% 5.2 mph WSW8.4 kmh WSW 17.0 mph27.4 kmh 30.11 in1019.6 mb 0.00 in0.0 mm 0.00 in0.0 mm 0.00 in0.0 mm
07:00 AM 33.1°F0.6°C 21.1°F-6.1°C 61% 4.8 mph SW7.7 kmh SW 13.0 mph20.9 kmh 30.11 in1019.6 mb 0.00 in0.0 mm 0.00 in0.0 mm 0.00 in0.0 mm
06:45 AM 33.4°F0.8°C 21.0°F-6.1°C 60% 4.9 mph E7.9 kmh E 15.2 mph24.5 kmh 30.11 in1019.6 mb 0.00 in0.0 mm 0.00 in0.0 mm 0.00 in0.0 mm
06:30 AM 33.4°F0.8°C 21.0°F-6.1°C 60% 4.4 mph SSE7.1 kmh SSE 14.1 mph22.7 kmh 30.11 in1019.6 mb 0.00 in0.0 mm 0.00 in0.0 mm 0.00 in0.0 mm
06:15 AM 33.3°F0.7°C 21.3°F-5.9°C 61% 4.3 mph S6.9 kmh S 11.4 mph18.3 kmh 30.10 in1019.3 mb 0.00 in0.0 mm 0.00 in0.0 mm 0.00 in0.0 mm
06:00 AM 32.9°F0.5°C 20.9°F-6.2°C 61% 4.8 mph NNE7.7 kmh NNE 14.5 mph23.3 kmh 30.10 in1019.3 mb 0.00 in0.0 mm 0.00 in0.0 mm 0.00 in0.0 mm
05:45 AM 32.9°F0.5°C 20.9°F-6.2°C 61% 4.6 mph NW7.4 kmh NW 14.3 mph23.0 kmh 30.10 in1019.3 mb 0.00 in0.0 mm 0.00 in0.0 mm 0.00 in0.0 mm
05:30 AM 32.9°F0.5°C 20.9°F-6.2°C 61% 4.6 mph E7.4 kmh E 14.8 mph23.8 kmh 30.11 in1019.6 mb 0.00 in0.0 mm 0.00 in0.0 mm 0.00 in0.0 mm
05:15 AM 32.7°F0.4°C 21.1°F-6.1°C 62% 4.7 mph WSW7.6 kmh WSW 14.1 mph22.7 kmh 30.11 in1019.6 mb 0.00 in0.0 mm 0.00 in0.0 mm 0.00 in0.0 mm
05:00 AM 32.7°F0.4°C 20.7°F-6.3°C 61% 4.1 mph WNW6.6 kmh WNW 12.1 mph19.5 kmh 30.11 in1019.6 mb 0.00 in0.0 mm 0.00 in0.0 mm 0.00 in0.0 mm
04:45 AM 32.7°F0.4°C 20.7°F-6.3°C 61% 4.0 mph NW6.4 kmh NW 14.3 mph23.0 kmh 30.11 in1019.6 mb 0.00 in0.0 mm 0.00 in0.0 mm 0.00 in0.0 mm
04:30 AM 32.9°F0.5°C 20.9°F-6.2°C 61% 3.9 mph W6.3 kmh W 11.2 mph18.0 kmh 30.11 in1019.6 mb 0.00 in0.0 mm 0.00 in0.0 mm 0.00 in0.0 mm
04:15 AM 32.7°F0.4°C 21.1°F-6.1°C 62% 3.6 mph W5.8 kmh W 9.2 mph14.8 kmh 30.11 in1019.6 mb 0.00 in0.0 mm 0.00 in0.0 mm 0.00 in0.0 mm
04:00 AM 32.4°F0.2°C 20.8°F-6.2°C 62% 3.8 mph W6.1 kmh W 8.5 mph13.7 kmh 30.11 in1019.6 mb 0.00 in0.0 mm 0.00 in0.0 mm 0.00 in0.0 mm
03:45 AM 32.5°F0.3°C 21.0°F-6.1°C 62% 3.0 mph NW4.8 kmh NW 7.2 mph11.6 kmh 30.11 in1019.6 mb 0.00 in0.0 mm 0.00 in0.0 mm 0.00 in0.0 mm
03:30 AM 32.7°F0.4°C 21.1°F-6.1°C 62% 2.6 mph WNW4.2 kmh WNW 7.6 mph12.2 kmh 30.12 in1020.0 mb 0.00 in0.0 mm 0.00 in0.0 mm 0.00 in0.0 mm
03:15 AM 33.1°F0.6°C 21.1°F-6.1°C 61% 2.7 mph WNW4.3 kmh WNW 7.6 mph12.2 kmh 30.12 in1020.0 mb 0.00 in0.0 mm 0.00 in0.0 mm 0.00 in0.0 mm
03:00 AM 32.9°F0.5°C 21.3°F-5.9°C 62% 3.1 mph W5.0 kmh W 7.8 mph12.6 kmh 30.12 in1020.0 mb 0.00 in0.0 mm 0.00 in0.0 mm 0.00 in0.0 mm
02:45 AM 33.3°F0.7°C 21.3°F-5.9°C 61% 4.4 mph S7.1 kmh S 9.6 mph15.4 kmh 30.12 in1020.0 mb 0.00 in0.0 mm 0.00 in0.0 mm 0.00 in0.0 mm
02:30 AM 33.6°F0.9°C 21.6°F-5.8°C 61% 3.5 mph SW5.6 kmh SW 9.6 mph15.4 kmh 30.13 in1020.3 mb 0.00 in0.0 mm 0.00 in0.0 mm 0.00 in0.0 mm
02:15 AM 34.0°F1.1°C 21.9°F-5.6°C 61% 4.5 mph S7.2 kmh S 10.5 mph16.9 kmh 30.13 in1020.3 mb 0.00 in0.0 mm 0.00 in0.0 mm 0.00 in0.0 mm
02:00 AM 32.2°F0.1°C 21.0°F-6.1°C 63% 3.7 mph WSW6.0 kmh WSW 10.5 mph16.9 kmh 30.13 in1020.3 mb 0.00 in0.0 mm 0.00 in0.0 mm 0.00 in0.0 mm
01:45 AM 31.1°F-0.5°C 20.0°F-6.7°C 63% 1.8 mph NNW2.9 kmh NNW 5.4 mph8.7 kmh 30.14 in1020.7 mb 0.00 in0.0 mm 0.00 in0.0 mm 0.00 in0.0 mm
01:30 AM 31.3°F-0.4°C 20.1°F-6.6°C 63% 1.4 mph N2.3 kmh N 3.8 mph6.1 kmh 30.14 in1020.7 mb 0.00 in0.0 mm 0.00 in0.0 mm 0.00 in0.0 mm
01:15 AM 31.6°F-0.2°C 20.5°F-6.4°C 63% 1.6 mph NNW2.6 kmh NNW 3.8 mph6.1 kmh 30.14 in1020.7 mb 0.00 in0.0 mm 0.00 in0.0 mm 0.00 in0.0 mm
01:00 AM 31.8°F-0.1°C 20.6°F-6.3°C 63% 1.7 mph NNW2.7 kmh NNW 6.0 mph9.7 kmh 30.14 in1020.7 mb 0.00 in0.0 mm 0.00 in0.0 mm 0.00 in0.0 mm
12:45 AM 31.8°F-0.1°C 20.6°F-6.3°C 63% 1.0 mph WNW1.6 kmh WNW 5.1 mph8.2 kmh 30.14 in1020.7 mb 0.00 in0.0 mm 0.00 in0.0 mm 0.00 in0.0 mm
12:30 AM 31.8°F-0.1°C 20.6°F-6.3°C 63% 0.6 mph N1.0 kmh N 2.2 mph3.5 kmh 30.15 in1021.0 mb 0.00 in0.0 mm 0.00 in0.0 mm 0.00 in0.0 mm
12:15 AM 31.8°F-0.1°C 20.3°F-6.5°C 62% 2.4 mph N3.9 kmh N 4.7 mph7.6 kmh 30.15 in1021.0 mb 0.00 in0.0 mm 0.00 in0.0 mm 0.00 in0.0 mm
12:00 AM 32.2°F0.1°C 20.6°F-6.3°C 62% 0.6 mph N1.0 kmh N 2.7 mph4.3 kmh 30.16 in1021.3 mb 0.00 in0.0 mm 0.00 in0.0 mm 0.00 in0.0 mm